sensor_id;sensor_type;location;lat;lon;timestamp;P1;durP1;ratioP1;P2;durP2;ratioP2
34805;SDS011;65084;42.196;25.326;2023-04-06T00:01:14;8.68;;;7.88;;
34805;SDS011;65084;42.196;25.326;2023-04-06T00:03:41;8.90;;;7.93;;
34805;SDS011;65084;42.196;25.326;2023-04-06T00:06:08;9.88;;;8.10;;
34805;SDS011;65084;42.196;25.326;2023-04-06T00:08:36;11.52;;;8.10;;
34805;SDS011;65084;42.196;25.326;2023-04-06T00:11:05;9.13;;;8.23;;
34805;SDS011;65084;42.196;25.326;2023-04-06T00:13:32;9.80;;;8.00;;
34805;SDS011;65084;42.196;25.326;2023-04-06T00:15:59;8.90;;;8.00;;
34805;SDS011;65084;42.196;25.326;2023-04-06T00:18:27;10.13;;;8.80;;
34805;SDS011;65084;42.196;25.326;2023-04-06T00:20:54;11.07;;;8.68;;
34805;SDS011;65084;42.196;25.326;2023-04-06T00:23:22;9.98;;;8.90;;
34805;SDS011;65084;42.196;25.326;2023-04-06T00:25:49;9.40;;;8.45;;
34805;SDS011;65084;42.196;25.326;2023-04-06T00:28:18;9.98;;;8.20;;
34805;SDS011;65084;42.196;25.326;2023-04-06T00:30:50;9.80;;;8.52;;
34805;SDS011;65084;42.196;25.326;2023-04-06T00:33:20;10.18;;;8.48;;
34805;SDS011;65084;42.196;25.326;2023-04-06T00:35:47;10.43;;;8.63;;
34805;SDS011;65084;42.196;25.326;2023-04-06T00:38:15;13.00;;;9.45;;
34805;SDS011;65084;42.196;25.326;2023-04-06T00:40:42;11.35;;;9.23;;
34805;SDS011;65084;42.196;25.326;2023-04-06T00:43:10;10.32;;;8.77;;
34805;SDS011;65084;42.196;25.326;2023-04-06T00:45:39;13.52;;;9.07;;
34805;SDS011;65084;42.196;25.326;2023-04-06T00:48:07;9.32;;;8.32;;
34805;SDS011;65084;42.196;25.326;2023-04-06T00:50:35;10.68;;;8.57;;
34805;SDS011;65084;42.196;25.326;2023-04-06T00:53:02;10.23;;;8.70;;
34805;SDS011;65084;42.196;25.326;2023-04-06T00:55:30;12.38;;;9.65;;
34805;SDS011;65084;42.196;25.326;2023-04-06T00:57:58;10.48;;;8.98;;
34805;SDS011;65084;42.196;25.326;2023-04-06T01:00:26;13.32;;;9.02;;
34805;SDS011;65084;42.196;25.326;2023-04-06T01:02:54;11.20;;;8.80;;
34805;SDS011;65084;42.196;25.326;2023-04-06T01:05:22;9.75;;;8.75;;
34805;SDS011;65084;42.196;25.326;2023-04-06T01:07:49;8.93;;;8.02;;
34805;SDS011;65084;42.196;25.326;2023-04-06T01:10:22;8.75;;;7.85;;
34805;SDS011;65084;42.196;25.326;2023-04-06T01:12:50;8.73;;;7.82;;
34805;SDS011;65084;42.196;25.326;2023-04-06T01:15:17;8.70;;;7.80;;
34805;SDS011;65084;42.196;25.326;2023-04-06T01:17:44;8.35;;;7.50;;
34805;SDS011;65084;42.196;25.326;2023-04-06T01:20:13;9.07;;;7.57;;
34805;SDS011;65084;42.196;25.326;2023-04-06T01:22:42;9.02;;;7.93;;
34805;SDS011;65084;42.196;25.326;2023-04-06T01:25:10;8.15;;;6.97;;
34805;SDS011;65084;42.196;25.326;2023-04-06T01:27:37;7.78;;;6.97;;
34805;SDS011;65084;42.196;25.326;2023-04-06T01:30:05;8.75;;;7.85;;
34805;SDS011;65084;42.196;25.326;2023-04-06T01:32:33;9.45;;;7.90;;
34805;SDS011;65084;42.196;25.326;2023-04-06T01:35:00;10.18;;;7.95;;
34805;SDS011;65084;42.196;25.326;2023-04-06T01:37:27;8.80;;;7.65;;
34805;SDS011;65084;42.196;25.326;2023-04-06T01:39:58;9.40;;;7.50;;
34805;SDS011;65084;42.196;25.326;2023-04-06T01:42:26;9.82;;;7.90;;
34805;SDS011;65084;42.196;25.326;2023-04-06T01:44:53;9.30;;;8.30;;
34805;SDS011;65084;42.196;25.326;2023-04-06T01:47:20;9.75;;;7.85;;
34805;SDS011;65084;42.196;25.326;2023-04-06T01:49:48;9.43;;;8.45;;
34805;SDS011;65084;42.196;25.326;2023-04-06T01:52:15;9.23;;;7.85;;
34805;SDS011;65084;42.196;25.326;2023-04-06T01:54:42;9.85;;;8.05;;
34805;SDS011;65084;42.196;25.326;2023-04-06T01:57:11;12.27;;;8.40;;
34805;SDS011;65084;42.196;25.326;2023-04-06T01:59:38;9.30;;;7.93;;
34805;SDS011;65084;42.196;25.326;2023-04-06T02:02:06;11.00;;;8.18;;
34805;SDS011;65084;42.196;25.326;2023-04-06T02:04:33;9.90;;;8.15;;
34805;SDS011;65084;42.196;25.326;2023-04-06T02:07:01;9.48;;;7.80;;
34805;SDS011;65084;42.196;25.326;2023-04-06T02:09:28;10.00;;;8.57;;
34805;SDS011;65084;42.196;25.326;2023-04-06T02:11:55;11.85;;;8.73;;
34805;SDS011;65084;42.196;25.326;2023-04-06T02:14:25;9.65;;;8.35;;
34805;SDS011;65084;42.196;25.326;2023-04-06T02:16:52;9.35;;;7.60;;
34805;SDS011;65084;42.196;25.326;2023-04-06T02:19:20;10.68;;;7.82;;
34805;SDS011;65084;42.196;25.326;2023-04-06T02:21:47;9.48;;;7.60;;
34805;SDS011;65084;42.196;25.326;2023-04-06T02:24:14;8.77;;;7.65;;
34805;SDS011;65084;42.196;25.326;2023-04-06T02:26:42;10.15;;;7.18;;
34805;SDS011;65084;42.196;25.326;2023-04-06T02:29:09;10.32;;;8.32;;
34805;SDS011;65084;42.196;25.326;2023-04-06T02:31:38;9.43;;;7.78;;
34805;SDS011;65084;42.196;25.326;2023-04-06T02:34:05;10.13;;;8.23;;
34805;SDS011;65084;42.196;25.326;2023-04-06T02:36:36;9.27;;;8.23;;
34805;SDS011;65084;42.196;25.326;2023-04-06T02:39:03;8.50;;;7.53;;
34805;SDS011;65084;42.196;25.326;2023-04-06T02:41:30;9.52;;;7.55;;
34805;SDS011;65084;42.196;25.326;2023-04-06T02:43:58;10.50;;;7.80;;
34805;SDS011;65084;42.196;25.326;2023-04-06T02:46:25;9.80;;;8.65;;
34805;SDS011;65084;42.196;25.326;2023-04-06T02:48:54;13.23;;;8.60;;
34805;SDS011;65084;42.196;25.326;2023-04-06T02:51:21;9.65;;;8.00;;
34805;SDS011;65084;42.196;25.326;2023-04-06T02:53:49;10.50;;;8.80;;
34805;SDS011;65084;42.196;25.326;2023-04-06T02:56:16;14.00;;;8.90;;
34805;SDS011;65084;42.196;25.326;2023-04-06T02:58:44;9.60;;;7.65;;
34805;SDS011;65084;42.196;25.326;2023-04-06T03:01:11;10.13;;;8.35;;
34805;SDS011;65084;42.196;25.326;2023-04-06T03:03:38;10.73;;;8.23;;
34805;SDS011;65084;42.196;25.326;2023-04-06T03:06:07;12.55;;;8.27;;
34805;SDS011;65084;42.196;25.326;2023-04-06T03:08:35;9.95;;;7.97;;
34805;SDS011;65084;42.196;25.326;2023-04-06T03:11:02;11.15;;;8.48;;
34805;SDS011;65084;42.196;25.326;2023-04-06T03:13:30;12.88;;;8.55;;
34805;SDS011;65084;42.196;25.326;2023-04-06T03:15:58;12.93;;;8.32;;
34805;SDS011;65084;42.196;25.326;2023-04-06T03:18:25;12.82;;;8.77;;
34805;SDS011;65084;42.196;25.326;2023-04-06T03:20:52;10.48;;;8.65;;
34805;SDS011;65084;42.196;25.326;2023-04-06T03:23:21;11.77;;;8.70;;
34805;SDS011;65084;42.196;25.326;2023-04-06T03:25:49;15.88;;;8.27;;
34805;SDS011;65084;42.196;25.326;2023-04-06T03:28:16;12.73;;;7.65;;
34805;SDS011;65084;42.196;25.326;2023-04-06T03:30:44;11.10;;;8.27;;
34805;SDS011;65084;42.196;25.326;2023-04-06T03:33:12;9.18;;;7.18;;
34805;SDS011;65084;42.196;25.326;2023-04-06T03:35:39;9.70;;;8.35;;
34805;SDS011;65084;42.196;25.326;2023-04-06T03:38:06;8.57;;;7.53;;
34805;SDS011;65084;42.196;25.326;2023-04-06T03:40:35;9.30;;;8.10;;
34805;SDS011;65084;42.196;25.326;2023-04-06T03:43:03;23.50;;;8.02;;
34805;SDS011;65084;42.196;25.326;2023-04-06T03:45:31;15.25;;;8.10;;
34805;SDS011;65084;42.196;25.326;2023-04-06T03:47:58;14.18;;;7.82;;
34805;SDS011;65084;42.196;25.326;2023-04-06T03:50:25;9.45;;;7.50;;
34805;SDS011;65084;42.196;25.326;2023-04-06T03:52:53;10.32;;;7.97;;
34805;SDS011;65084;42.196;25.326;2023-04-06T03:55:20;21.02;;;8.82;;
34805;SDS011;65084;42.196;25.326;2023-04-06T03:57:49;14.20;;;8.77;;
34805;SDS011;65084;42.196;25.326;2023-04-06T04:00:16;11.13;;;7.97;;
34805;SDS011;65084;42.196;25.326;2023-04-06T04:02:44;17.40;;;8.45;;
34805;SDS011;65084;42.196;25.326;2023-04-06T04:05:11;10.90;;;8.00;;
34805;SDS011;65084;42.196;25.326;2023-04-06T04:07:38;16.02;;;8.43;;
34805;SDS011;65084;42.196;25.326;2023-04-06T04:10:06;11.02;;;8.10;;
34805;SDS011;65084;42.196;25.326;2023-04-06T04:12:33;9.40;;;8.35;;
34805;SDS011;65084;42.196;25.326;2023-04-06T04:15:02;14.18;;;8.57;;
34805;SDS011;65084;42.196;25.326;2023-04-06T04:17:30;12.65;;;9.43;;
34805;SDS011;65084;42.196;25.326;2023-04-06T04:19:57;11.60;;;8.77;;
34805;SDS011;65084;42.196;25.326;2023-04-06T04:22:25;10.45;;;8.60;;
34805;SDS011;65084;42.196;25.326;2023-04-06T04:24:53;12.38;;;9.52;;
34805;SDS011;65084;42.196;25.326;2023-04-06T04:27:20;14.52;;;9.18;;
34805;SDS011;65084;42.196;25.326;2023-04-06T04:29:47;12.05;;;9.50;;
34805;SDS011;65084;42.196;25.326;2023-04-06T04:32:16;13.98;;;9.98;;
34805;SDS011;65084;42.196;25.326;2023-04-06T04:34:43;16.23;;;10.63;;
34805;SDS011;65084;42.196;25.326;2023-04-06T04:37:11;20.23;;;12.13;;
34805;SDS011;65084;42.196;25.326;2023-04-06T04:39:38;20.85;;;12.23;;
34805;SDS011;65084;42.196;25.326;2023-04-06T04:42:05;22.45;;;12.93;;
34805;SDS011;65084;42.196;25.326;2023-04-06T04:44:33;23.10;;;13.27;;
34805;SDS011;65084;42.196;25.326;2023-04-06T04:47:01;24.73;;;13.50;;
34805;SDS011;65084;42.196;25.326;2023-04-06T04:49:29;23.55;;;14.52;;
34805;SDS011;65084;42.196;25.326;2023-04-06T04:51:57;20.17;;;12.30;;
34805;SDS011;65084;42.196;25.326;2023-04-06T04:54:24;18.73;;;11.88;;
34805;SDS011;65084;42.196;25.326;2023-04-06T04:56:52;25.40;;;12.30;;
34805;SDS011;65084;42.196;25.326;2023-04-06T04:59:19;16.77;;;10.15;;
34805;SDS011;65084;42.196;25.326;2023-04-06T05:01:46;19.40;;;10.70;;
34805;SDS011;65084;42.196;25.326;2023-04-06T05:04:14;16.02;;;11.35;;
34805;SDS011;65084;42.196;25.326;2023-04-06T05:06:42;16.67;;;10.60;;
34805;SDS011;65084;42.196;25.326;2023-04-06T05:09:10;17.20;;;11.93;;
34805;SDS011;65084;42.196;25.326;2023-04-06T05:11:37;16.77;;;10.90;;
34805;SDS011;65084;42.196;25.326;2023-04-06T05:14:04;15.57;;;10.23;;
34805;SDS011;65084;42.196;25.326;2023-04-06T05:16:32;22.92;;;12.00;;
34805;SDS011;65084;42.196;25.326;2023-04-06T05:19:00;22.35;;;11.07;;
34805;SDS011;65084;42.196;25.326;2023-04-06T05:21:27;24.30;;;12.50;;
34805;SDS011;65084;42.196;25.326;2023-04-06T05:23:56;16.77;;;11.23;;
34805;SDS011;65084;42.196;25.326;2023-04-06T05:26:23;17.58;;;11.43;;
34805;SDS011;65084;42.196;25.326;2023-04-06T05:28:51;17.77;;;11.25;;
34805;SDS011;65084;42.196;25.326;2023-04-06T05:31:19;11.07;;;8.95;;
34805;SDS011;65084;42.196;25.326;2023-04-06T05:33:47;14.68;;;9.13;;
34805;SDS011;65084;42.196;25.326;2023-04-06T05:36:14;16.63;;;12.07;;
34805;SDS011;65084;42.196;25.326;2023-04-06T05:38:42;12.60;;;10.50;;
34805;SDS011;65084;42.196;25.326;2023-04-06T05:41:10;14.27;;;10.43;;
34805;SDS011;65084;42.196;25.326;2023-04-06T05:43:38;13.18;;;10.55;;
34805;SDS011;65084;42.196;25.326;2023-04-06T05:46:05;17.08;;;10.65;;
34805;SDS011;65084;42.196;25.326;2023-04-06T05:48:33;13.10;;;9.60;;
34805;SDS011;65084;42.196;25.326;2023-04-06T05:51:00;13.57;;;10.05;;
34805;SDS011;65084;42.196;25.326;2023-04-06T05:53:31;18.02;;;10.57;;
34805;SDS011;65084;42.196;25.326;2023-04-06T05:56:00;15.10;;;10.25;;
34805;SDS011;65084;42.196;25.326;2023-04-06T05:58:29;14.95;;;10.20;;
34805;SDS011;65084;42.196;25.326;2023-04-06T06:00:56;12.73;;;9.50;;
34805;SDS011;65084;42.196;25.326;2023-04-06T06:03:24;13.07;;;9.80;;
34805;SDS011;65084;42.196;25.326;2023-04-06T06:05:51;13.80;;;10.35;;
34805;SDS011;65084;42.196;25.326;2023-04-06T06:08:19;15.65;;;10.45;;
34805;SDS011;65084;42.196;25.326;2023-04-06T06:10:46;13.75;;;10.32;;
34805;SDS011;65084;42.196;25.326;2023-04-06T06:13:14;16.42;;;10.90;;
34805;SDS011;65084;42.196;25.326;2023-04-06T06:15:43;13.93;;;10.52;;
34805;SDS011;65084;42.196;25.326;2023-04-06T06:18:10;12.07;;;9.40;;
34805;SDS011;65084;42.196;25.326;2023-04-06T06:20:37;16.75;;;9.98;;
34805;SDS011;65084;42.196;25.326;2023-04-06T06:23:05;10.88;;;9.60;;
34805;SDS011;65084;42.196;25.326;2023-04-06T06:25:32;12.55;;;10.30;;
34805;SDS011;65084;42.196;25.326;2023-04-06T06:28:00;11.68;;;10.30;;
34805;SDS011;65084;42.196;25.326;2023-04-06T06:30:27;11.90;;;9.85;;
34805;SDS011;65084;42.196;25.326;2023-04-06T06:32:56;11.63;;;9.32;;
34805;SDS011;65084;42.196;25.326;2023-04-06T06:35:23;18.73;;;10.15;;
34805;SDS011;65084;42.196;25.326;2023-04-06T06:37:51;13.40;;;9.52;;
34805;SDS011;65084;42.196;25.326;2023-04-06T06:40:18;12.45;;;9.80;;
34805;SDS011;65084;42.196;25.326;2023-04-06T06:42:48;12.18;;;8.95;;
34805;SDS011;65084;42.196;25.326;2023-04-06T06:45:17;12.05;;;9.52;;
34805;SDS011;65084;42.196;25.326;2023-04-06T06:47:45;13.90;;;9.73;;
34805;SDS011;65084;42.196;25.326;2023-04-06T06:50:14;11.70;;;9.85;;
34805;SDS011;65084;42.196;25.326;2023-04-06T06:52:41;12.13;;;9.07;;
34805;SDS011;65084;42.196;25.326;2023-04-06T06:55:09;10.75;;;9.05;;
34805;SDS011;65084;42.196;25.326;2023-04-06T06:57:37;10.25;;;9.15;;
34805;SDS011;65084;42.196;25.326;2023-04-06T07:00:05;11.23;;;8.85;;
34805;SDS011;65084;42.196;25.326;2023-04-06T07:02:34;10.55;;;8.85;;
34805;SDS011;65084;42.196;25.326;2023-04-06T07:05:02;11.13;;;8.70;;
34805;SDS011;65084;42.196;25.326;2023-04-06T07:07:31;12.10;;;8.48;;
34805;SDS011;65084;42.196;25.326;2023-04-06T07:09:58;13.43;;;9.50;;
34805;SDS011;65084;42.196;25.326;2023-04-06T07:12:26;12.35;;;9.45;;
34805;SDS011;65084;42.196;25.326;2023-04-06T07:14:53;9.25;;;8.23;;
34805;SDS011;65084;42.196;25.326;2023-04-06T07:17:21;15.07;;;7.80;;
34805;SDS011;65084;42.196;25.326;2023-04-06T07:19:48;8.48;;;7.40;;
34805;SDS011;65084;42.196;25.326;2023-04-06T07:22:15;14.48;;;8.40;;
34805;SDS011;65084;42.196;25.326;2023-04-06T07:24:44;10.32;;;8.93;;
34805;SDS011;65084;42.196;25.326;2023-04-06T07:27:11;9.73;;;8.73;;
34805;SDS011;65084;42.196;25.326;2023-04-06T07:29:39;10.90;;;8.95;;
34805;SDS011;65084;42.196;25.326;2023-04-06T07:32:06;9.07;;;8.13;;
34805;SDS011;65084;42.196;25.326;2023-04-06T07:34:33;11.18;;;9.93;;
34805;SDS011;65084;42.196;25.326;2023-04-06T07:37:01;11.40;;;8.20;;
34805;SDS011;65084;42.196;25.326;2023-04-06T07:39:28;21.65;;;8.63;;
34805;SDS011;65084;42.196;25.326;2023-04-06T07:41:57;9.70;;;8.63;;
34805;SDS011;65084;42.196;25.326;2023-04-06T07:44:24;9.70;;;8.55;;
34805;SDS011;65084;42.196;25.326;2023-04-06T07:46:52;12.20;;;9.38;;
34805;SDS011;65084;42.196;25.326;2023-04-06T07:49:19;11.27;;;8.57;;
34805;SDS011;65084;42.196;25.326;2023-04-06T07:51:48;8.93;;;7.78;;
34805;SDS011;65084;42.196;25.326;2023-04-06T07:54:15;12.82;;;8.90;;
34805;SDS011;65084;42.196;25.326;2023-04-06T07:56:42;9.25;;;8.30;;
34805;SDS011;65084;42.196;25.326;2023-04-06T07:59:12;10.32;;;8.82;;
34805;SDS011;65084;42.196;25.326;2023-04-06T08:01:40;13.23;;;8.70;;
34805;SDS011;65084;42.196;25.326;2023-04-06T08:04:07;9.38;;;8.43;;
34805;SDS011;65084;42.196;25.326;2023-04-06T08:06:35;11.32;;;9.20;;
34805;SDS011;65084;42.196;25.326;2023-04-06T08:09:02;10.73;;;8.93;;
34805;SDS011;65084;42.196;25.326;2023-04-06T08:11:29;11.82;;;8.80;;
34805;SDS011;65084;42.196;25.326;2023-04-06T08:13:57;16.42;;;11.32;;
34805;SDS011;65084;42.196;25.326;2023-04-06T08:16:26;18.73;;;9.45;;
34805;SDS011;65084;42.196;25.326;2023-04-06T08:18:53;9.48;;;8.50;;
34805;SDS011;65084;42.196;25.326;2023-04-06T08:21:20;46.10;;;16.73;;
34805;SDS011;65084;42.196;25.326;2023-04-06T08:23:48;12.77;;;8.65;;
34805;SDS011;65084;42.196;25.326;2023-04-06T08:26:15;9.68;;;7.20;;
34805;SDS011;65084;42.196;25.326;2023-04-06T08:28:42;28.27;;;13.88;;
34805;SDS011;65084;42.196;25.326;2023-04-06T08:31:10;17.27;;;11.57;;
34805;SDS011;65084;42.196;25.326;2023-04-06T08:33:38;10.50;;;8.35;;
34805;SDS011;65084;42.196;25.326;2023-04-06T08:36:07;9.55;;;8.23;;
34805;SDS011;65084;42.196;25.326;2023-04-06T08:38:35;16.88;;;9.25;;
34805;SDS011;65084;42.196;25.326;2023-04-06T08:41:06;11.77;;;9.13;;
34805;SDS011;65084;42.196;25.326;2023-04-06T08:43:35;10.70;;;7.88;;
34805;SDS011;65084;42.196;25.326;2023-04-06T08:46:02;7.20;;;6.50;;
34805;SDS011;65084;42.196;25.326;2023-04-06T08:48:30;7.30;;;6.55;;
34805;SDS011;65084;42.196;25.326;2023-04-06T08:50:59;7.15;;;6.53;;
34805;SDS011;65084;42.196;25.326;2023-04-06T08:53:26;6.50;;;5.88;;
34805;SDS011;65084;42.196;25.326;2023-04-06T08:55:53;7.38;;;6.38;;
34805;SDS011;65084;42.196;25.326;2023-04-06T08:58:21;7.85;;;7.05;;
34805;SDS011;65084;42.196;25.326;2023-04-06T09:00:49;6.53;;;5.93;;
34805;SDS011;65084;42.196;25.326;2023-04-06T09:03:17;6.47;;;5.95;;
34805;SDS011;65084;42.196;25.326;2023-04-06T09:05:45;9.32;;;7.40;;
34805;SDS011;65084;42.196;25.326;2023-04-06T09:08:15;7.60;;;6.82;;
34805;SDS011;65084;42.196;25.326;2023-04-06T09:10:42;7.28;;;6.43;;
34805;SDS011;65084;42.196;25.326;2023-04-06T09:13:10;8.50;;;6.60;;
34805;SDS011;65084;42.196;25.326;2023-04-06T09:15:37;7.95;;;7.22;;
34805;SDS011;65084;42.196;25.326;2023-04-06T09:18:05;9.18;;;7.57;;
34805;SDS011;65084;42.196;25.326;2023-04-06T09:20:33;7.80;;;6.70;;
34805;SDS011;65084;42.196;25.326;2023-04-06T09:23:00;7.65;;;6.95;;
34805;SDS011;65084;42.196;25.326;2023-04-06T09:25:29;9.73;;;6.88;;
34805;SDS011;65084;42.196;25.326;2023-04-06T09:28:00;8.95;;;6.47;;
34805;SDS011;65084;42.196;25.326;2023-04-06T09:30:28;9.65;;;6.80;;
34805;SDS011;65084;42.196;25.326;2023-04-06T09:32:56;10.15;;;8.43;;
34805;SDS011;65084;42.196;25.326;2023-04-06T09:35:24;7.50;;;6.80;;
34805;SDS011;65084;42.196;25.326;2023-04-06T09:37:54;7.93;;;7.18;;
34805;SDS011;65084;42.196;25.326;2023-04-06T09:40:21;8.63;;;7.72;;
34805;SDS011;65084;42.196;25.326;2023-04-06T09:42:50;8.45;;;7.65;;
34805;SDS011;65084;42.196;25.326;2023-04-06T09:45:19;7.43;;;6.72;;
34805;SDS011;65084;42.196;25.326;2023-04-06T09:47:47;6.90;;;6.30;;
34805;SDS011;65084;42.196;25.326;2023-04-06T09:50:15;7.50;;;6.70;;
34805;SDS011;65084;42.196;25.326;2023-04-06T09:52:47;8.07;;;6.40;;
34805;SDS011;65084;42.196;25.326;2023-04-06T09:55:17;6.22;;;5.63;;
34805;SDS011;65084;42.196;25.326;2023-04-06T09:57:49;7.32;;;5.82;;
34805;SDS011;65084;42.196;25.326;2023-04-06T10:00:20;5.57;;;5.07;;
34805;SDS011;65084;42.196;25.326;2023-04-06T10:02:50;6.47;;;5.88;;
34805;SDS011;65084;42.196;25.326;2023-04-06T10:05:20;28.98;;;6.70;;
34805;SDS011;65084;42.196;25.326;2023-04-06T10:07:50;9.32;;;7.18;;
34805;SDS011;65084;42.196;25.326;2023-04-06T10:10:18;6.07;;;5.47;;
34805;SDS011;65084;42.196;25.326;2023-04-06T10:12:45;6.53;;;5.45;;
34805;SDS011;65084;42.196;25.326;2023-04-06T10:15:15;4.95;;;4.55;;
34805;SDS011;65084;42.196;25.326;2023-04-06T10:17:44;7.13;;;5.22;;
34805;SDS011;65084;42.196;25.326;2023-04-06T10:20:12;5.95;;;5.35;;
34805;SDS011;65084;42.196;25.326;2023-04-06T10:22:43;8.25;;;6.55;;
34805;SDS011;65084;42.196;25.326;2023-04-06T10:25:15;5.25;;;4.82;;
34805;SDS011;65084;42.196;25.326;2023-04-06T10:27:43;5.78;;;5.28;;
34805;SDS011;65084;42.196;25.326;2023-04-06T10:30:10;6.90;;;6.18;;
34805;SDS011;65084;42.196;25.326;2023-04-06T10:32:38;11.23;;;6.53;;
34805;SDS011;65084;42.196;25.326;2023-04-06T10:35:08;9.75;;;6.68;;
34805;SDS011;65084;42.196;25.326;2023-04-06T10:37:49;15.73;;;8.52;;
34805;SDS011;65084;42.196;25.326;2023-04-06T10:40:18;9.13;;;6.70;;
34805;SDS011;65084;42.196;25.326;2023-04-06T10:42:45;10.15;;;7.30;;
34805;SDS011;65084;42.196;25.326;2023-04-06T10:45:19;5.68;;;5.28;;
34805;SDS011;65084;42.196;25.326;2023-04-06T10:47:46;7.35;;;4.82;;
34805;SDS011;65084;42.196;25.326;2023-04-06T10:50:16;5.20;;;4.70;;
34805;SDS011;65084;42.196;25.326;2023-04-06T10:52:44;4.65;;;4.25;;
34805;SDS011;65084;42.196;25.326;2023-04-06T10:55:12;5.22;;;4.80;;
34805;SDS011;65084;42.196;25.326;2023-04-06T10:57:40;5.22;;;4.82;;
34805;SDS011;65084;42.196;25.326;2023-04-06T11:00:08;5.10;;;4.60;;
34805;SDS011;65084;42.196;25.326;2023-04-06T11:02:35;7.28;;;5.28;;
34805;SDS011;65084;42.196;25.326;2023-04-06T11:05:04;5.25;;;4.75;;
34805;SDS011;65084;42.196;25.326;2023-04-06T11:07:33;4.80;;;4.28;;
34805;SDS011;65084;42.196;25.326;2023-04-06T11:10:00;4.40;;;3.78;;
34805;SDS011;65084;42.196;25.326;2023-04-06T11:12:28;4.00;;;3.70;;
34805;SDS011;65084;42.196;25.326;2023-04-06T11:14:56;4.97;;;4.57;;
34805;SDS011;65084;42.196;25.326;2023-04-06T11:17:29;5.25;;;4.13;;
34805;SDS011;65084;42.196;25.326;2023-04-06T11:19:57;4.75;;;4.35;;
34805;SDS011;65084;42.196;25.326;2023-04-06T11:22:25;4.88;;;4.47;;
34805;SDS011;65084;42.196;25.326;2023-04-06T11:25:03;5.20;;;4.80;;
34805;SDS011;65084;42.196;25.326;2023-04-06T11:27:31;5.60;;;4.45;;
34805;SDS011;65084;42.196;25.326;2023-04-06T11:29:59;4.90;;;4.53;;
34805;SDS011;65084;42.196;25.326;2023-04-06T11:32:26;5.15;;;4.75;;
34805;SDS011;65084;42.196;25.326;2023-04-06T11:34:54;7.32;;;5.47;;
34805;SDS011;65084;42.196;25.326;2023-04-06T11:37:21;5.00;;;4.60;;
34805;SDS011;65084;42.196;25.326;2023-04-06T11:39:49;5.47;;;4.97;;
34805;SDS011;65084;42.196;25.326;2023-04-06T11:42:24;5.13;;;4.72;;
34805;SDS011;65084;42.196;25.326;2023-04-06T11:44:53;5.60;;;4.72;;
34805;SDS011;65084;42.196;25.326;2023-04-06T11:47:28;5.65;;;5.18;;
34805;SDS011;65084;42.196;25.326;2023-04-06T11:49:55;6.20;;;5.70;;
34805;SDS011;65084;42.196;25.326;2023-04-06T11:52:25;5.82;;;5.30;;
34805;SDS011;65084;42.196;25.326;2023-04-06T11:54:53;6.13;;;5.63;;
34805;SDS011;65084;42.196;25.326;2023-04-06T11:57:22;6.60;;;5.95;;
34805;SDS011;65084;42.196;25.326;2023-04-06T11:59:51;6.00;;;5.50;;
34805;SDS011;65084;42.196;25.326;2023-04-06T12:02:19;7.05;;;4.88;;
34805;SDS011;65084;42.196;25.326;2023-04-06T12:04:46;6.03;;;5.53;;
34805;SDS011;65084;42.196;25.326;2023-04-06T12:07:13;8.63;;;5.78;;
34805;SDS011;65084;42.196;25.326;2023-04-06T12:09:41;6.30;;;5.50;;
34805;SDS011;65084;42.196;25.326;2023-04-06T12:12:08;5.28;;;4.82;;
34805;SDS011;65084;42.196;25.326;2023-04-06T12:14:35;6.07;;;5.47;;
34805;SDS011;65084;42.196;25.326;2023-04-06T12:17:04;6.38;;;5.75;;
34805;SDS011;65084;42.196;25.326;2023-04-06T12:19:32;5.55;;;5.07;;
34805;SDS011;65084;42.196;25.326;2023-04-06T12:22:15;7.45;;;4.90;;
34805;SDS011;65084;42.196;25.326;2023-04-06T12:24:43;5.65;;;5.15;;
34805;SDS011;65084;42.196;25.326;2023-04-06T12:27:10;7.50;;;5.20;;
34805;SDS011;65084;42.196;25.326;2023-04-06T12:29:38;5.00;;;4.60;;
34805;SDS011;65084;42.196;25.326;2023-04-06T12:32:06;5.50;;;5.00;;
34805;SDS011;65084;42.196;25.326;2023-04-06T12:34:34;5.28;;;4.88;;
34805;SDS011;65084;42.196;25.326;2023-04-06T12:37:01;6.32;;;5.78;;
34805;SDS011;65084;42.196;25.326;2023-04-06T12:39:29;6.30;;;5.70;;
34805;SDS011;65084;42.196;25.326;2023-04-06T12:41:56;9.32;;;5.25;;
34805;SDS011;65084;42.196;25.326;2023-04-06T12:44:24;5.50;;;5.10;;
34805;SDS011;65084;42.196;25.326;2023-04-06T12:46:51;5.47;;;4.97;;
34805;SDS011;65084;42.196;25.326;2023-04-06T12:49:20;6.40;;;5.07;;
34805;SDS011;65084;42.196;25.326;2023-04-06T12:51:47;5.35;;;4.82;;
34805;SDS011;65084;42.196;25.326;2023-04-06T12:54:15;5.00;;;4.50;;
34805;SDS011;65084;42.196;25.326;2023-04-06T12:56:42;4.38;;;4.07;;
34805;SDS011;65084;42.196;25.326;2023-04-06T12:59:10;4.93;;;4.53;;
34805;SDS011;65084;42.196;25.326;2023-04-06T13:01:37;4.95;;;4.55;;
34805;SDS011;65084;42.196;25.326;2023-04-06T13:04:04;5.35;;;4.93;;
34805;SDS011;65084;42.196;25.326;2023-04-06T13:06:33;4.80;;;4.32;;
34805;SDS011;65084;42.196;25.326;2023-04-06T13:09:00;10.90;;;4.60;;
34805;SDS011;65084;42.196;25.326;2023-04-06T13:11:29;27.30;;;5.20;;
34805;SDS011;65084;42.196;25.326;2023-04-06T13:13:56;4.30;;;4.00;;
34805;SDS011;65084;42.196;25.326;2023-04-06T13:16:24;6.32;;;4.85;;
34805;SDS011;65084;42.196;25.326;2023-04-06T13:18:51;4.28;;;3.97;;
34805;SDS011;65084;42.196;25.326;2023-04-06T13:21:18;4.43;;;4.03;;
34805;SDS011;65084;42.196;25.326;2023-04-06T13:23:47;4.45;;;3.85;;
34805;SDS011;65084;42.196;25.326;2023-04-06T13:26:14;3.85;;;3.55;;
34805;SDS011;65084;42.196;25.326;2023-04-06T13:28:42;3.53;;;3.22;;
34805;SDS011;65084;42.196;25.326;2023-04-06T13:31:10;4.00;;;3.60;;
34805;SDS011;65084;42.196;25.326;2023-04-06T13:33:38;3.53;;;3.20;;
34805;SDS011;65084;42.196;25.326;2023-04-06T13:36:06;3.83;;;3.53;;
34805;SDS011;65084;42.196;25.326;2023-04-06T13:38:33;3.50;;;3.20;;
34805;SDS011;65084;42.196;25.326;2023-04-06T13:41:05;2.90;;;2.70;;
34805;SDS011;65084;42.196;25.326;2023-04-06T13:43:32;3.60;;;3.28;;
34805;SDS011;65084;42.196;25.326;2023-04-06T13:46:00;3.78;;;3.47;;
34805;SDS011;65084;42.196;25.326;2023-04-06T13:48:27;4.22;;;3.42;;
34805;SDS011;65084;42.196;25.326;2023-04-06T13:50:54;5.25;;;3.30;;
34805;SDS011;65084;42.196;25.326;2023-04-06T13:53:22;7.47;;;3.30;;
34805;SDS011;65084;42.196;25.326;2023-04-06T13:55:52;4.45;;;4.05;;
34805;SDS011;65084;42.196;25.326;2023-04-06T13:58:21;8.90;;;4.57;;
34805;SDS011;65084;42.196;25.326;2023-04-06T14:00:48;3.80;;;3.10;;
34805;SDS011;65084;42.196;25.326;2023-04-06T14:03:15;4.65;;;4.25;;
34805;SDS011;65084;42.196;25.326;2023-04-06T14:05:43;6.13;;;4.68;;
34805;SDS011;65084;42.196;25.326;2023-04-06T14:08:10;7.88;;;4.57;;
34805;SDS011;65084;42.196;25.326;2023-04-06T14:10:38;6.95;;;5.65;;
34805;SDS011;65084;42.196;25.326;2023-04-06T14:13:05;7.65;;;4.55;;
34805;SDS011;65084;42.196;25.326;2023-04-06T14:15:34;7.45;;;5.63;;
34805;SDS011;65084;42.196;25.326;2023-04-06T14:18:01;9.93;;;4.97;;
34805;SDS011;65084;42.196;25.326;2023-04-06T14:20:30;4.70;;;4.30;;
34805;SDS011;65084;42.196;25.326;2023-04-06T14:22:59;5.10;;;4.63;;
34805;SDS011;65084;42.196;25.326;2023-04-06T14:25:26;6.45;;;4.45;;
34805;SDS011;65084;42.196;25.326;2023-04-06T14:27:56;32.45;;;17.88;;
34805;SDS011;65084;42.196;25.326;2023-04-06T14:30:23;18.35;;;11.93;;